createdAt,value
2022-11-28T00:01:36.817Z,2.60
2022-11-28T00:04:06.102Z,2.70
2022-11-28T00:06:38.274Z,2.60
2022-11-28T00:09:07.316Z,2.60
2022-11-28T00:11:35.569Z,2.60
2022-11-28T00:14:03.646Z,2.60
2022-11-28T00:16:31.764Z,2.60
2022-11-28T00:19:02.406Z,2.60
2022-11-28T00:21:31.334Z,2.60
2022-11-28T00:24:00.077Z,2.50
2022-11-28T00:26:30.621Z,2.50
2022-11-28T00:28:59.814Z,2.60
2022-11-28T00:31:31.997Z,2.60
2022-11-28T00:34:02.919Z,2.50
2022-11-28T00:36:31.572Z,2.50
2022-11-28T00:38:59.647Z,2.50
2022-11-28T00:41:30.426Z,2.50
2022-11-28T00:43:59.166Z,2.50
2022-11-28T00:46:27.595Z,2.50
2022-11-28T00:48:55.658Z,2.50
2022-11-28T00:51:27.405Z,2.50
2022-11-28T00:53:58.682Z,2.50
2022-11-28T00:56:29.838Z,2.50
2022-11-28T00:58:58.273Z,2.50
2022-11-28T01:01:28.287Z,2.40
2022-11-28T01:03:58.760Z,2.40
2022-11-28T01:06:29.421Z,2.40
2022-11-28T01:08:58.999Z,2.50
2022-11-28T01:11:27.999Z,2.40
2022-11-28T01:13:56.383Z,2.40
2022-11-28T01:16:25.217Z,2.40
2022-11-28T01:18:53.514Z,2.40
2022-11-28T01:21:22.532Z,2.50
2022-11-28T01:23:52.230Z,2.50
2022-11-28T01:26:22.738Z,2.50
2022-11-28T01:28:50.758Z,2.50
2022-11-28T01:31:21.835Z,2.50
2022-11-28T01:33:50.008Z,2.50
2022-11-28T01:36:18.862Z,2.50
2022-11-28T01:38:47.542Z,2.40
2022-11-28T01:41:20.518Z,2.40
2022-11-28T01:44:03.432Z,2.40
2022-11-28T01:46:32.821Z,2.40
2022-11-28T01:49:04.797Z,2.40
2022-11-28T01:51:33.678Z,2.40
2022-11-28T01:54:02.428Z,2.40
2022-11-28T01:56:39.360Z,2.40
2022-11-28T01:59:11.062Z,2.40
2022-11-28T02:01:40.625Z,2.40
2022-11-28T02:04:10.227Z,2.40
2022-11-28T02:06:38.211Z,2.40
2022-11-28T02:09:10.412Z,2.40
2022-11-28T02:11:59.515Z,2.40
2022-11-28T02:14:44.997Z,2.40
2022-11-28T02:17:22.379Z,2.30
2022-11-28T02:20:47.421Z,2.30
2022-11-28T02:23:23.065Z,2.40
2022-11-28T02:26:20.474Z,2.30
2022-11-28T02:29:13.686Z,2.30
2022-11-28T02:32:07.826Z,2.40
2022-11-28T02:34:47.134Z,2.40
2022-11-28T02:37:22.172Z,2.30
2022-11-28T02:40:01.679Z,2.30
2022-11-28T02:42:39.092Z,2.30
2022-11-28T02:45:12.107Z,2.30
2022-11-28T02:47:46.371Z,2.40
2022-11-28T02:50:20.179Z,2.30
2022-11-28T02:52:52.084Z,2.30
2022-11-28T02:55:21.475Z,2.30
2022-11-28T02:57:51.470Z,2.30
2022-11-28T03:00:30.157Z,2.20
2022-11-28T03:03:21.351Z,2.20
2022-11-28T03:05:58.948Z,2.20
2022-11-28T03:08:38.220Z,2.10
2022-11-28T03:11:16.153Z,2.20
2022-11-28T03:13:54.669Z,2.10
2022-11-28T03:16:29.001Z,2.10
2022-11-28T03:19:04.809Z,2.10
2022-11-28T03:21:40.611Z,2.10
2022-11-28T03:24:16.015Z,2.00
2022-11-28T03:26:53.797Z,2.00
2022-11-28T03:29:26.776Z,1.90
2022-11-28T03:31:59.447Z,2.00
2022-11-28T03:34:34.172Z,1.90
2022-11-28T03:37:07.367Z,1.90
2022-11-28T03:39:39.285Z,1.90
2022-11-28T03:42:12.027Z,1.90
2022-11-28T03:44:45.763Z,1.80
2022-11-28T03:47:14.223Z,1.80
2022-11-28T03:49:49.727Z,1.80
2022-11-28T03:52:22.973Z,1.80
2022-11-28T03:54:55.686Z,1.80
2022-11-28T03:57:29.888Z,1.80
2022-11-28T04:00:02.433Z,1.90
2022-11-28T04:02:43.383Z,1.90
2022-11-28T04:05:20.730Z,1.90
2022-11-28T04:07:53.610Z,2.00
2022-11-28T04:10:23.202Z,2.00
2022-11-28T04:12:57.981Z,2.00
2022-11-28T04:15:33.727Z,2.00
2022-11-28T04:18:07.794Z,2.00
2022-11-28T04:20:42.455Z,2.00
2022-11-28T04:23:14.783Z,2.10
2022-11-28T04:25:49.015Z,2.10
2022-11-28T04:28:23.176Z,2.10
2022-11-28T04:30:53.324Z,2.10
2022-11-28T04:33:24.514Z,2.10
2022-11-28T04:35:56.210Z,2.10
2022-11-28T04:38:27.069Z,2.10
2022-11-28T04:40:58.734Z,2.10
2022-11-28T04:43:31.115Z,2.20
2022-11-28T04:46:05.398Z,2.20
2022-11-28T04:48:34.562Z,2.30
2022-11-28T04:51:15.132Z,2.40
2022-11-28T04:53:50.534Z,2.40
2022-11-28T04:56:22.819Z,2.40
2022-11-28T04:58:51.960Z,2.50
2022-11-28T05:01:24.589Z,2.50
2022-11-28T05:03:53.179Z,2.60
2022-11-28T05:06:29.006Z,2.60
2022-11-28T05:08:57.245Z,2.60
2022-11-28T05:11:25.497Z,2.60
2022-11-28T05:13:53.722Z,2.60
2022-11-28T05:16:22.421Z,2.60
2022-11-28T05:18:50.807Z,2.60
2022-11-28T05:21:18.754Z,2.60
2022-11-28T05:23:48.254Z,2.60
2022-11-28T05:26:18.554Z,2.60
2022-11-28T05:28:46.604Z,2.60
2022-11-28T05:31:15.441Z,2.60
2022-11-28T05:33:43.518Z,2.60
2022-11-28T05:36:13.746Z,2.60
2022-11-28T05:38:42.176Z,2.70
2022-11-28T05:41:19.046Z,2.70
2022-11-28T05:43:47.329Z,2.80
2022-11-28T05:46:15.563Z,2.70
2022-11-28T05:48:43.617Z,2.70
2022-11-28T05:51:12.336Z,2.70
2022-11-28T05:53:40.491Z,2.80
2022-11-28T05:56:09.314Z,2.70
2022-11-28T05:58:39.157Z,2.70
2022-11-28T06:01:12.365Z,2.70
2022-11-28T06:03:40.955Z,2.70
2022-11-28T06:06:14.299Z,2.60
2022-11-28T06:08:42.356Z,2.60
2022-11-28T06:11:11.156Z,2.70
2022-11-28T06:13:40.653Z,2.70
2022-11-28T06:16:10.060Z,2.70
2022-11-28T06:18:38.399Z,2.70
2022-11-28T06:21:08.064Z,2.60
2022-11-28T06:23:36.217Z,2.60
2022-11-28T06:26:10.113Z,2.60
2022-11-28T06:28:38.500Z,2.60
2022-11-28T06:31:11.626Z,2.60
2022-11-28T06:33:39.680Z,2.60
2022-11-28T06:36:09.138Z,2.70
2022-11-28T06:38:37.723Z,2.70
2022-11-28T06:41:09.704Z,2.70
2022-11-28T06:43:38.596Z,2.70
2022-11-28T06:46:15.991Z,2.80
2022-11-28T06:48:44.736Z,2.80
2022-11-28T06:51:13.761Z,2.70
2022-11-28T06:53:42.244Z,2.70
2022-11-28T06:56:14.102Z,2.80
2022-11-28T06:58:42.749Z,2.70
2022-11-28T07:01:14.664Z,2.70
2022-11-28T07:03:43.837Z,2.80
2022-11-28T07:06:12.581Z,2.80
2022-11-28T07:08:40.610Z,2.80
2022-11-28T07:11:10.522Z,2.80
2022-11-28T07:13:38.722Z,2.80
2022-11-28T07:16:07.923Z,2.80
2022-11-28T07:18:37.353Z,2.80
2022-11-28T07:21:05.543Z,2.90
2022-11-28T07:23:33.788Z,2.90
2022-11-28T07:26:03.151Z,2.90
2022-11-28T07:28:32.559Z,2.90
2022-11-28T07:31:03.078Z,2.90
2022-11-28T07:33:31.330Z,2.90
2022-11-28T07:36:02.787Z,3.00
2022-11-28T07:38:30.936Z,3.10
2022-11-28T07:41:04.962Z,3.00
2022-11-28T07:43:33.073Z,3.00
2022-11-28T07:46:04.202Z,3.00
2022-11-28T07:48:32.353Z,3.10
2022-11-28T07:51:00.530Z,3.10
2022-11-28T07:53:29.997Z,3.10
2022-11-28T07:56:01.663Z,3.20
2022-11-28T07:58:29.763Z,3.20
2022-11-28T08:01:00.116Z,3.10
2022-11-28T08:03:28.144Z,3.20
2022-11-28T08:06:02.939Z,3.20
2022-11-28T08:08:32.738Z,3.30
2022-11-28T08:11:06.936Z,3.30
2022-11-28T08:13:35.549Z,3.30
2022-11-28T08:16:06.492Z,3.30
2022-11-28T08:18:35.127Z,3.40
2022-11-28T08:21:07.500Z,3.50
2022-11-28T08:23:38.206Z,3.40
2022-11-28T08:26:08.089Z,3.40
2022-11-28T08:28:36.434Z,3.50
2022-11-28T08:31:10.972Z,3.50
2022-11-28T08:33:39.647Z,3.60
2022-11-28T08:36:08.639Z,3.60
2022-11-28T08:38:38.785Z,3.60
2022-11-28T08:41:09.041Z,3.70
2022-11-28T08:43:38.015Z,3.80
2022-11-28T08:46:06.921Z,3.80
2022-11-28T08:48:36.428Z,3.90
2022-11-28T08:51:04.954Z,3.90
2022-11-28T08:53:33.603Z,3.90
2022-11-28T08:56:03.640Z,4.00
2022-11-28T08:58:31.696Z,4.00
2022-11-28T09:01:00.022Z,3.90
2022-11-28T09:03:28.171Z,4.00
2022-11-28T09:06:02.323Z,4.00
2022-11-28T09:08:30.527Z,4.10
2022-11-28T09:10:58.906Z,4.00
2022-11-28T09:13:28.240Z,4.00
2022-11-28T09:15:56.383Z,4.10
2022-11-28T09:18:24.732Z,4.10
2022-11-28T09:20:58.778Z,4.20
2022-11-28T09:23:27.002Z,4.20
2022-11-28T09:25:55.076Z,4.20
2022-11-28T09:28:23.201Z,4.30
2022-11-28T09:31:01.383Z,4.30
2022-11-28T09:33:29.570Z,4.20
2022-11-28T09:35:58.376Z,4.20
2022-11-28T09:38:26.855Z,4.30
2022-11-28T09:40:55.095Z,4.30
2022-11-28T09:43:30.925Z,4.30
2022-11-28T09:46:03.590Z,4.30
2022-11-28T09:48:35.601Z,4.30
2022-11-28T09:51:10.862Z,4.40
2022-11-28T09:53:46.769Z,4.30
2022-11-28T09:56:16.717Z,4.40
2022-11-28T09:58:48.782Z,4.50
2022-11-28T10:01:26.589Z,4.60
2022-11-28T10:04:00.462Z,4.60
2022-11-28T10:06:34.988Z,4.60
2022-11-28T10:09:21.839Z,4.60
2022-11-28T10:12:07.346Z,4.70
2022-11-28T10:15:12.654Z,4.70
2022-11-28T10:17:51.098Z,4.80
2022-11-28T10:20:23.234Z,4.80
2022-11-28T10:22:56.856Z,4.80
2022-11-28T10:25:30.801Z,4.80
2022-11-28T10:27:59.152Z,4.80
2022-11-28T10:30:30.085Z,5.00
2022-11-28T10:33:05.164Z,5.00
2022-11-28T10:35:40.399Z,5.10
2022-11-28T10:38:13.001Z,5.10
2022-11-28T10:40:48.251Z,5.00
2022-11-28T10:43:28.560Z,5.00
2022-11-28T10:46:04.696Z,5.10
2022-11-28T10:48:43.825Z,5.20
2022-11-28T10:51:21.058Z,5.10
2022-11-28T10:53:58.455Z,5.20
2022-11-28T10:56:40.653Z,5.20
2022-11-28T10:59:20.849Z,5.20
2022-11-28T11:01:50.620Z,5.20
2022-11-28T11:04:22.368Z,5.30
2022-11-28T11:07:16.288Z,5.40
2022-11-28T11:09:47.520Z,5.30
2022-11-28T11:12:22.507Z,5.40
2022-11-28T11:14:50.600Z,5.30
2022-11-28T11:17:36.091Z,5.30
2022-11-28T11:20:27.736Z,5.30
2022-11-28T11:22:57.022Z,5.30
2022-11-28T11:25:26.879Z,5.40
2022-11-28T11:27:57.258Z,5.30
2022-11-28T11:30:31.097Z,5.30
2022-11-28T11:33:02.050Z,5.30
2022-11-28T11:35:35.911Z,5.30
2022-11-28T11:38:18.704Z,5.40
2022-11-28T11:40:47.062Z,5.40
2022-11-28T11:43:30.206Z,5.50
2022-11-28T11:46:16.776Z,5.50
2022-11-28T11:48:46.456Z,5.50
2022-11-28T11:51:25.651Z,5.50
2022-11-28T11:54:05.071Z,5.50
2022-11-28T11:56:36.524Z,5.40
2022-11-28T11:59:11.810Z,5.40
2022-11-28T12:01:41.392Z,5.40
2022-11-28T12:04:43.347Z,5.50
2022-11-28T12:07:13.584Z,5.50
2022-11-28T12:09:47.136Z,5.40
2022-11-28T12:12:21.374Z,5.40
2022-11-28T12:14:50.229Z,5.40
2022-11-28T12:18:08.976Z,5.40
2022-11-28T12:20:50.355Z,5.40
2022-11-28T12:23:41.870Z,5.40
2022-11-28T12:26:18.803Z,5.50
2022-11-28T12:29:06.090Z,5.40
2022-11-28T12:31:43.660Z,5.50
2022-11-28T12:34:25.058Z,5.50
2022-11-28T12:37:00.480Z,5.50
2022-11-28T12:39:39.754Z,5.50
2022-11-28T12:42:22.760Z,5.50
2022-11-28T12:45:11.072Z,5.50
2022-11-28T12:47:48.201Z,5.50
2022-11-28T12:50:30.452Z,5.50
2022-11-28T12:53:10.991Z,5.50
2022-11-28T12:55:49.549Z,5.50
2022-11-28T12:58:25.503Z,5.50
2022-11-28T13:01:02.062Z,5.50
2022-11-28T13:03:42.504Z,5.50
2022-11-28T13:06:20.848Z,5.40
2022-11-28T13:09:00.263Z,5.40
2022-11-28T13:11:43.798Z,5.40
2022-11-28T13:14:20.055Z,5.40
2022-11-28T13:16:51.072Z,5.50
2022-11-28T13:19:31.289Z,5.50
2022-11-28T13:22:08.063Z,5.50
2022-11-28T13:24:42.304Z,5.40
2022-11-28T13:27:22.046Z,5.50
2022-11-28T13:30:10.618Z,5.50
2022-11-28T13:32:46.140Z,5.40
2022-11-28T13:35:16.256Z,5.40
2022-11-28T13:40:42.913Z,5.30
2022-11-28T13:43:19.055Z,5.30
2022-11-28T13:45:48.052Z,5.30
2022-11-28T13:49:19.909Z,5.30
2022-11-28T13:51:48.940Z,5.30
2022-11-28T13:54:48.725Z,5.30
2022-11-28T13:57:27.311Z,5.30
2022-11-28T14:00:20.793Z,5.30
2022-11-28T14:02:52.176Z,5.20
2022-11-28T14:05:32.743Z,5.20
2022-11-28T14:08:01.994Z,5.20
2022-11-28T14:10:47.711Z,5.20
2022-11-28T14:13:28.134Z,5.20
2022-11-28T14:16:08.089Z,5.10
2022-11-28T14:18:58.354Z,5.20
2022-11-28T14:21:42.259Z,5.30
2022-11-28T14:24:17.562Z,5.20
2022-11-28T14:26:45.713Z,5.20
2022-11-28T14:29:43.007Z,5.30
2022-11-28T14:32:30.685Z,5.20
2022-11-28T14:34:59.465Z,5.10
2022-11-28T14:37:53.148Z,5.00
2022-11-28T14:41:09.138Z,5.00
2022-11-28T14:43:39.358Z,5.00
2022-11-28T14:46:30.677Z,5.00
2022-11-28T14:49:21.348Z,4.90
2022-11-28T14:52:38.274Z,4.90
2022-11-28T14:55:18.707Z,5.00
2022-11-28T14:57:56.730Z,5.00
2022-11-28T15:00:27.127Z,5.00
2022-11-28T15:03:10.828Z,5.00
2022-11-28T15:05:48.252Z,4.90
2022-11-28T15:08:41.126Z,4.90
2022-11-28T15:11:34.497Z,4.90
2022-11-28T15:14:19.668Z,5.00
2022-11-28T15:16:50.834Z,5.00
2022-11-28T15:19:26.064Z,5.00
2022-11-28T15:21:56.565Z,4.90
2022-11-28T15:24:27.346Z,5.00
2022-11-28T15:26:57.725Z,4.90
2022-11-28T15:29:28.179Z,4.90
2022-11-28T15:31:58.373Z,4.80
2022-11-28T15:34:29.073Z,4.90
2022-11-28T15:37:00.774Z,4.70
2022-11-28T15:39:35.002Z,4.70
2022-11-28T15:42:05.484Z,4.70
2022-11-28T15:44:34.083Z,4.60
2022-11-28T15:47:02.284Z,4.60
2022-11-28T15:49:32.445Z,4.60
2022-11-28T15:52:04.295Z,4.60
2022-11-28T15:54:38.583Z,4.60
2022-11-28T15:57:07.892Z,4.60
2022-11-28T15:59:36.148Z,4.70
2022-11-28T16:02:13.889Z,4.70
2022-11-28T16:04:42.934Z,4.70
2022-11-28T16:07:15.694Z,4.60
2022-11-28T16:09:56.129Z,4.50
2022-11-28T16:12:24.413Z,4.50
2022-11-28T16:14:55.324Z,4.50
2022-11-28T16:17:27.148Z,4.50
2022-11-28T16:19:56.141Z,4.50
2022-11-28T16:22:31.329Z,4.50
2022-11-28T16:25:12.084Z,4.50
2022-11-28T16:27:45.434Z,4.60
2022-11-28T16:30:33.644Z,4.50
2022-11-28T16:33:01.975Z,4.50
2022-11-28T16:35:31.692Z,4.50
2022-11-28T16:38:17.206Z,4.60
2022-11-28T16:40:45.540Z,4.60
2022-11-28T16:43:23.247Z,4.60
2022-11-28T16:46:00.369Z,4.50
2022-11-28T16:48:34.710Z,4.40
2022-11-28T16:51:32.872Z,4.40
2022-11-28T16:54:32.363Z,4.30
2022-11-28T16:57:15.658Z,4.30
2022-11-28T16:59:44.855Z,4.30
2022-11-28T17:02:18.282Z,4.20
2022-11-28T17:04:47.793Z,4.20
2022-11-28T17:07:17.764Z,4.20
2022-11-28T17:09:49.259Z,4.30
2022-11-28T17:12:23.469Z,4.20
2022-11-28T17:14:51.779Z,4.30
2022-11-28T17:17:23.262Z,4.20
2022-11-28T17:19:51.818Z,4.20
2022-11-28T17:22:22.364Z,4.20
2022-11-28T17:24:53.151Z,4.10
2022-11-28T17:27:21.253Z,4.10
2022-11-28T17:29:49.455Z,4.10
2022-11-28T17:32:17.521Z,4.10
2022-11-28T17:34:46.563Z,4.00
2022-11-28T17:37:14.899Z,4.00
2022-11-28T17:40:03.667Z,4.00
2022-11-28T17:42:33.480Z,4.00
2022-11-28T17:45:01.567Z,3.90
2022-11-28T17:47:29.704Z,3.90
2022-11-28T17:49:57.929Z,3.90
2022-11-28T17:52:30.277Z,3.90
2022-11-28T17:55:06.860Z,3.90
2022-11-28T17:57:37.475Z,3.90
2022-11-28T18:00:08.019Z,3.90
2022-11-28T18:02:35.998Z,3.90
2022-11-28T18:05:05.171Z,3.90
2022-11-28T18:07:33.179Z,3.80
2022-11-28T18:10:01.339Z,3.80
2022-11-28T18:12:29.596Z,3.80
2022-11-28T18:15:01.115Z,3.80
2022-11-28T18:17:29.228Z,3.70
2022-11-28T18:19:58.108Z,3.70
2022-11-28T18:22:26.063Z,3.80
2022-11-28T18:24:54.190Z,3.70
2022-11-28T18:27:22.275Z,3.70
2022-11-28T18:29:51.356Z,3.70
2022-11-28T18:32:20.807Z,3.70
2022-11-28T18:34:48.899Z,3.70
2022-11-28T18:37:17.290Z,3.70
2022-11-28T18:39:45.520Z,3.60
2022-11-28T18:42:13.914Z,3.60
2022-11-28T18:44:41.950Z,3.50
2022-11-28T18:47:10.369Z,3.60
2022-11-28T18:49:39.880Z,3.60
2022-11-28T18:52:07.694Z,3.60
2022-11-28T18:54:38.348Z,3.50
2022-11-28T18:57:07.751Z,3.50
2022-11-28T18:59:35.865Z,3.50
2022-11-28T19:02:03.906Z,3.50
2022-11-28T19:04:32.135Z,3.50
2022-11-28T19:07:02.554Z,3.50
2022-11-28T19:09:30.595Z,3.50
2022-11-28T19:11:58.683Z,3.50
2022-11-28T19:14:26.673Z,3.40
2022-11-28T19:16:56.894Z,3.40
2022-11-28T19:19:25.039Z,3.40
2022-11-28T19:21:53.119Z,3.40
2022-11-28T19:24:22.748Z,3.40
2022-11-28T19:26:50.775Z,3.40
2022-11-28T19:29:18.907Z,3.40
2022-11-28T19:31:46.981Z,3.40
2022-11-28T19:34:17.216Z,3.40
2022-11-28T19:36:47.504Z,3.40
2022-11-28T19:39:18.040Z,3.30
2022-11-28T19:41:48.157Z,3.30
2022-11-28T19:44:16.743Z,3.30
2022-11-28T19:46:45.728Z,3.20
2022-11-28T19:49:18.954Z,3.30
2022-11-28T19:51:48.055Z,3.20
2022-11-28T19:54:16.742Z,3.20
2022-11-28T19:56:44.992Z,3.20
2022-11-28T19:59:14.678Z,3.20
2022-11-28T20:01:42.929Z,3.20
2022-11-28T20:04:11.251Z,3.20
2022-11-28T20:06:39.240Z,3.20
2022-11-28T20:09:09.688Z,3.20
2022-11-28T20:11:38.559Z,3.20
2022-11-28T20:14:09.099Z,3.20
2022-11-28T20:16:39.216Z,3.20
2022-11-28T20:19:07.946Z,3.20
2022-11-28T20:21:36.662Z,3.30
2022-11-28T20:24:07.662Z,3.20
2022-11-28T20:26:38.428Z,3.20
2022-11-28T20:29:06.988Z,3.20
2022-11-28T20:31:38.648Z,3.30
2022-11-28T20:34:07.314Z,3.30
2022-11-28T20:36:36.501Z,3.30
2022-11-28T20:39:05.500Z,3.20
2022-11-28T20:41:34.015Z,3.30
2022-11-28T20:44:02.435Z,3.30
2022-11-28T20:46:32.823Z,3.20
2022-11-28T20:49:04.770Z,3.20
2022-11-28T20:51:34.659Z,3.20
2022-11-28T20:54:04.745Z,3.20
2022-11-28T20:56:51.609Z,3.20
2022-11-28T20:59:24.089Z,3.20
2022-11-28T21:01:52.481Z,3.20
2022-11-28T21:04:21.935Z,3.20
2022-11-28T21:06:50.046Z,3.20
2022-11-28T21:09:20.748Z,3.10
2022-11-28T21:11:58.584Z,3.10
2022-11-28T21:14:28.016Z,3.10
2022-11-28T21:16:56.585Z,3.20
2022-11-28T21:19:28.634Z,3.10
2022-11-28T21:21:56.571Z,3.10
2022-11-28T21:24:24.671Z,3.10
2022-11-28T21:26:54.699Z,3.10
2022-11-28T21:29:24.534Z,3.10
2022-11-28T21:31:53.057Z,3.10
2022-11-28T21:34:22.461Z,3.10
2022-11-28T21:36:51.808Z,3.10
2022-11-28T21:39:22.079Z,3.10
2022-11-28T21:41:50.987Z,3.00
2022-11-28T21:44:19.173Z,3.00
2022-11-28T21:46:47.331Z,3.10
2022-11-28T21:49:15.308Z,3.10
2022-11-28T21:51:43.374Z,3.10
2022-11-28T21:54:13.581Z,3.10
2022-11-28T21:59:15.113Z,3.10
2022-11-28T22:01:44.964Z,3.10
2022-11-28T22:04:15.812Z,3.10
2022-11-28T22:06:45.929Z,3.10
2022-11-28T22:09:19.860Z,3.10
2022-11-28T22:11:50.045Z,3.10
2022-11-28T22:14:19.613Z,3.10
2022-11-28T22:16:49.522Z,3.10
2022-11-28T22:19:17.779Z,3.10
2022-11-28T22:21:54.577Z,3.10
2022-11-28T22:24:27.498Z,3.10
2022-11-28T22:26:56.486Z,3.10
2022-11-28T22:29:29.590Z,3.20
2022-11-28T22:31:57.855Z,3.00
2022-11-28T22:34:26.659Z,3.10
2022-11-28T22:36:54.767Z,3.10
2022-11-28T22:39:23.221Z,3.10
2022-11-28T22:41:52.832Z,3.10
2022-11-28T22:44:24.329Z,3.10
2022-11-28T22:46:52.634Z,3.10
2022-11-28T22:49:22.215Z,3.10
2022-11-28T22:51:50.313Z,3.10
2022-11-28T22:54:23.966Z,3.10
2022-11-28T22:57:00.079Z,3.10
2022-11-28T22:59:29.698Z,3.10
2022-11-28T23:01:57.851Z,3.10
2022-11-28T23:04:26.093Z,3.10
2022-11-28T23:06:54.149Z,3.00
2022-11-28T23:09:28.651Z,3.10
2022-11-28T23:12:05.674Z,3.00
2022-11-28T23:14:45.046Z,3.10
2022-11-28T23:17:28.271Z,3.00
2022-11-28T23:19:56.339Z,2.90
2022-11-28T23:22:24.650Z,2.80
2022-11-28T23:24:53.360Z,2.90
2022-11-28T23:27:24.826Z,3.00
2022-11-28T23:29:53.035Z,2.90
2022-11-28T23:32:23.360Z,2.90
2022-11-28T23:34:51.475Z,2.80
2022-11-28T23:37:28.422Z,2.80
2022-11-28T23:40:01.189Z,2.90
2022-11-28T23:42:33.920Z,2.80
2022-11-28T23:45:06.630Z,2.80
2022-11-28T23:47:36.053Z,2.80
2022-11-28T23:50:09.266Z,2.80
2022-11-28T23:52:37.622Z,2.70
2022-11-28T23:55:14.047Z,2.70
2022-11-28T23:57:45.901Z,2.70
